sensor_id;sensor_type;location;lat;lon;timestamp;P1;durP1;ratioP1;P2;durP2;ratioP2
8327;SDS011;4201;48.754;8.864;2023-03-31T00:01:57;9.40;;;2.50;;
8327;SDS011;4201;48.754;8.864;2023-03-31T00:04:23;10.10;;;2.73;;
8327;SDS011;4201;48.754;8.864;2023-03-31T00:06:50;7.57;;;2.80;;
8327;SDS011;4201;48.754;8.864;2023-03-31T00:09:19;6.87;;;2.60;;
8327;SDS011;4201;48.754;8.864;2023-03-31T00:11:46;9.50;;;3.13;;
8327;SDS011;4201;48.754;8.864;2023-03-31T00:14:12;6.33;;;2.50;;
8327;SDS011;4201;48.754;8.864;2023-03-31T00:16:40;8.13;;;2.60;;
8327;SDS011;4201;48.754;8.864;2023-03-31T00:19:06;5.77;;;2.87;;
8327;SDS011;4201;48.754;8.864;2023-03-31T00:21:34;11.23;;;3.10;;
8327;SDS011;4201;48.754;8.864;2023-03-31T00:24:01;9.30;;;3.03;;
8327;SDS011;4201;48.754;8.864;2023-03-31T00:26:29;8.47;;;2.40;;
8327;SDS011;4201;48.754;8.864;2023-03-31T00:28:56;10.60;;;3.70;;
8327;SDS011;4201;48.754;8.864;2023-03-31T00:31:23;9.00;;;3.07;;
8327;SDS011;4201;48.754;8.864;2023-03-31T00:33:51;8.27;;;2.97;;
8327;SDS011;4201;48.754;8.864;2023-03-31T00:36:17;10.20;;;3.00;;
8327;SDS011;4201;48.754;8.864;2023-03-31T00:38:51;11.37;;;2.90;;
8327;SDS011;4201;48.754;8.864;2023-03-31T00:41:17;8.37;;;2.90;;
8327;SDS011;4201;48.754;8.864;2023-03-31T00:46:38;8.10;;;2.80;;
8327;SDS011;4201;48.754;8.864;2023-03-31T00:49:07;8.43;;;2.63;;
8327;SDS011;4201;48.754;8.864;2023-03-31T00:51:36;10.60;;;5.07;;
8327;SDS011;4201;48.754;8.864;2023-03-31T00:54:03;9.53;;;3.40;;
8327;SDS011;4201;48.754;8.864;2023-03-31T00:56:32;9.93;;;3.20;;
8327;SDS011;4201;48.754;8.864;2023-03-31T00:59:00;8.00;;;3.10;;
8327;SDS011;4201;48.754;8.864;2023-03-31T01:01:27;9.83;;;2.97;;
8327;SDS011;4201;48.754;8.864;2023-03-31T01:03:55;8.63;;;3.00;;
8327;SDS011;4201;48.754;8.864;2023-03-31T01:06:23;7.03;;;2.43;;
8327;SDS011;4201;48.754;8.864;2023-03-31T01:08:50;9.80;;;3.03;;
8327;SDS011;4201;48.754;8.864;2023-03-31T01:11:17;8.50;;;2.80;;
8327;SDS011;4201;48.754;8.864;2023-03-31T01:13:44;11.80;;;3.57;;
8327;SDS011;4201;48.754;8.864;2023-03-31T01:16:14;5.73;;;2.77;;
8327;SDS011;4201;48.754;8.864;2023-03-31T01:18:40;6.63;;;2.87;;
8327;SDS011;4201;48.754;8.864;2023-03-31T01:26:54;9.33;;;2.40;;
8327;SDS011;4201;48.754;8.864;2023-03-31T01:32:07;7.20;;;2.90;;
8327;SDS011;4201;48.754;8.864;2023-03-31T01:34:48;11.53;;;3.30;;
8327;SDS011;4201;48.754;8.864;2023-03-31T01:37:21;9.00;;;3.00;;
8327;SDS011;4201;48.754;8.864;2023-03-31T01:40:09;8.97;;;2.77;;
8327;SDS011;4201;48.754;8.864;2023-03-31T01:42:38;10.30;;;2.67;;
8327;SDS011;4201;48.754;8.864;2023-03-31T01:45:09;9.83;;;2.70;;
8327;SDS011;4201;48.754;8.864;2023-03-31T01:47:42;8.50;;;2.53;;
8327;SDS011;4201;48.754;8.864;2023-03-31T01:50:12;15.33;;;3.57;;
8327;SDS011;4201;48.754;8.864;2023-03-31T01:52:44;11.30;;;2.80;;
8327;SDS011;4201;48.754;8.864;2023-03-31T01:55:15;8.30;;;2.77;;
8327;SDS011;4201;48.754;8.864;2023-03-31T01:57:46;9.23;;;3.23;;
8327;SDS011;4201;48.754;8.864;2023-03-31T02:00:13;11.73;;;3.00;;
8327;SDS011;4201;48.754;8.864;2023-03-31T02:02:41;12.80;;;3.00;;
8327;SDS011;4201;48.754;8.864;2023-03-31T02:05:10;12.67;;;3.47;;
8327;SDS011;4201;48.754;8.864;2023-03-31T02:07:40;10.37;;;3.13;;
8327;SDS011;4201;48.754;8.864;2023-03-31T02:10:08;8.57;;;3.53;;
8327;SDS011;4201;48.754;8.864;2023-03-31T02:12:37;15.73;;;3.43;;
8327;SDS011;4201;48.754;8.864;2023-03-31T02:15:06;8.90;;;3.27;;
8327;SDS011;4201;48.754;8.864;2023-03-31T02:17:33;12.37;;;3.53;;
8327;SDS011;4201;48.754;8.864;2023-03-31T02:20:04;7.63;;;3.20;;
8327;SDS011;4201;48.754;8.864;2023-03-31T02:22:33;9.93;;;3.30;;
8327;SDS011;4201;48.754;8.864;2023-03-31T02:25:01;6.50;;;2.70;;
8327;SDS011;4201;48.754;8.864;2023-03-31T02:27:29;16.33;;;3.93;;
8327;SDS011;4201;48.754;8.864;2023-03-31T02:29:57;11.40;;;3.77;;
8327;SDS011;4201;48.754;8.864;2023-03-31T02:32:24;10.07;;;3.73;;
8327;SDS011;4201;48.754;8.864;2023-03-31T02:34:52;15.93;;;4.50;;
8327;SDS011;4201;48.754;8.864;2023-03-31T02:37:19;11.27;;;3.33;;
8327;SDS011;4201;48.754;8.864;2023-03-31T02:39:46;10.93;;;3.97;;
8327;SDS011;4201;48.754;8.864;2023-03-31T02:42:13;10.10;;;3.80;;
8327;SDS011;4201;48.754;8.864;2023-03-31T02:44:40;8.10;;;3.00;;
8327;SDS011;4201;48.754;8.864;2023-03-31T02:47:08;9.67;;;2.80;;
8327;SDS011;4201;48.754;8.864;2023-03-31T02:49:36;10.83;;;3.37;;
8327;SDS011;4201;48.754;8.864;2023-03-31T02:52:17;6.50;;;2.90;;
8327;SDS011;4201;48.754;8.864;2023-03-31T02:54:52;9.30;;;4.47;;
8327;SDS011;4201;48.754;8.864;2023-03-31T02:57:26;5.73;;;3.13;;
8327;SDS011;4201;48.754;8.864;2023-03-31T03:00:00;7.50;;;3.60;;
8327;SDS011;4201;48.754;8.864;2023-03-31T03:02:34;9.97;;;3.93;;
8327;SDS011;4201;48.754;8.864;2023-03-31T03:05:07;11.23;;;3.50;;
8327;SDS011;4201;48.754;8.864;2023-03-31T03:07:37;11.67;;;4.20;;
8327;SDS011;4201;48.754;8.864;2023-03-31T03:10:07;16.03;;;3.23;;
8327;SDS011;4201;48.754;8.864;2023-03-31T03:12:37;8.43;;;3.90;;
8327;SDS011;4201;48.754;8.864;2023-03-31T03:15:06;5.53;;;3.30;;
8327;SDS011;4201;48.754;8.864;2023-03-31T03:17:36;8.10;;;3.93;;
8327;SDS011;4201;48.754;8.864;2023-03-31T03:20:05;13.47;;;4.67;;
8327;SDS011;4201;48.754;8.864;2023-03-31T03:22:33;13.23;;;4.50;;
8327;SDS011;4201;48.754;8.864;2023-03-31T03:24:59;9.17;;;4.40;;
8327;SDS011;4201;48.754;8.864;2023-03-31T03:27:26;10.43;;;4.27;;
8327;SDS011;4201;48.754;8.864;2023-03-31T03:29:52;8.83;;;4.43;;
8327;SDS011;4201;48.754;8.864;2023-03-31T03:32:18;9.90;;;4.13;;
8327;SDS011;4201;48.754;8.864;2023-03-31T03:34:46;6.73;;;3.80;;
8327;SDS011;4201;48.754;8.864;2023-03-31T03:37:12;7.47;;;4.50;;
8327;SDS011;4201;48.754;8.864;2023-03-31T03:39:38;11.50;;;3.97;;
8327;SDS011;4201;48.754;8.864;2023-03-31T03:42:05;8.50;;;3.90;;
8327;SDS011;4201;48.754;8.864;2023-03-31T03:44:31;8.23;;;4.90;;
8327;SDS011;4201;48.754;8.864;2023-03-31T03:46:57;11.50;;;3.90;;
8327;SDS011;4201;48.754;8.864;2023-03-31T03:49:24;7.53;;;4.27;;
8327;SDS011;4201;48.754;8.864;2023-03-31T03:51:51;9.50;;;4.10;;
8327;SDS011;4201;48.754;8.864;2023-03-31T03:54:17;18.33;;;5.20;;
8327;SDS011;4201;48.754;8.864;2023-03-31T03:56:44;9.17;;;4.93;;
8327;SDS011;4201;48.754;8.864;2023-03-31T03:59:10;12.87;;;4.60;;
8327;SDS011;4201;48.754;8.864;2023-03-31T04:01:36;10.80;;;4.23;;
8327;SDS011;4201;48.754;8.864;2023-03-31T04:04:03;12.83;;;4.97;;
8327;SDS011;4201;48.754;8.864;2023-03-31T04:06:29;8.53;;;4.80;;
8327;SDS011;4201;48.754;8.864;2023-03-31T04:08:56;9.70;;;5.00;;
8327;SDS011;4201;48.754;8.864;2023-03-31T04:11:23;18.67;;;5.13;;
8327;SDS011;4201;48.754;8.864;2023-03-31T04:13:50;12.63;;;5.50;;
8327;SDS011;4201;48.754;8.864;2023-03-31T04:16:16;15.30;;;5.70;;
8327;SDS011;4201;48.754;8.864;2023-03-31T04:18:42;11.40;;;5.70;;
8327;SDS011;4201;48.754;8.864;2023-03-31T04:21:08;14.90;;;6.10;;
8327;SDS011;4201;48.754;8.864;2023-03-31T04:23:36;15.00;;;7.47;;
8327;SDS011;4201;48.754;8.864;2023-03-31T04:26:07;16.77;;;7.60;;
8327;SDS011;4201;48.754;8.864;2023-03-31T04:28:35;16.60;;;6.70;;
8327;SDS011;4201;48.754;8.864;2023-03-31T04:31:01;16.73;;;7.67;;
8327;SDS011;4201;48.754;8.864;2023-03-31T04:33:28;23.30;;;8.80;;
8327;SDS011;4201;48.754;8.864;2023-03-31T04:35:54;15.00;;;9.60;;
8327;SDS011;4201;48.754;8.864;2023-03-31T04:38:21;15.57;;;9.80;;
8327;SDS011;4201;48.754;8.864;2023-03-31T04:40:48;20.40;;;7.70;;
8327;SDS011;4201;48.754;8.864;2023-03-31T04:43:16;14.70;;;6.90;;
8327;SDS011;4201;48.754;8.864;2023-03-31T04:45:43;17.30;;;6.37;;
8327;SDS011;4201;48.754;8.864;2023-03-31T04:48:09;13.67;;;5.93;;
8327;SDS011;4201;48.754;8.864;2023-03-31T04:50:36;11.23;;;6.20;;
8327;SDS011;4201;48.754;8.864;2023-03-31T04:53:02;12.37;;;5.73;;
8327;SDS011;4201;48.754;8.864;2023-03-31T04:55:29;10.83;;;5.80;;
8327;SDS011;4201;48.754;8.864;2023-03-31T04:57:55;17.63;;;6.90;;
8327;SDS011;4201;48.754;8.864;2023-03-31T05:00:23;13.70;;;6.33;;
8327;SDS011;4201;48.754;8.864;2023-03-31T05:02:50;11.37;;;5.77;;
8327;SDS011;4201;48.754;8.864;2023-03-31T05:05:16;15.70;;;6.73;;
8327;SDS011;4201;48.754;8.864;2023-03-31T05:07:43;14.73;;;6.33;;
8327;SDS011;4201;48.754;8.864;2023-03-31T05:10:10;12.87;;;6.37;;
8327;SDS011;4201;48.754;8.864;2023-03-31T05:12:36;11.63;;;6.57;;
8327;SDS011;4201;48.754;8.864;2023-03-31T05:15:03;15.30;;;7.60;;
8327;SDS011;4201;48.754;8.864;2023-03-31T05:17:31;11.13;;;6.63;;
8327;SDS011;4201;48.754;8.864;2023-03-31T05:19:58;13.60;;;6.77;;
8327;SDS011;4201;48.754;8.864;2023-03-31T05:22:24;17.03;;;6.83;;
8327;SDS011;4201;48.754;8.864;2023-03-31T05:24:50;17.40;;;7.80;;
8327;SDS011;4201;48.754;8.864;2023-03-31T05:27:16;14.17;;;7.00;;
8327;SDS011;4201;48.754;8.864;2023-03-31T05:29:43;15.47;;;7.30;;
8327;SDS011;4201;48.754;8.864;2023-03-31T05:32:09;13.17;;;7.00;;
8327;SDS011;4201;48.754;8.864;2023-03-31T05:34:37;17.03;;;8.03;;
8327;SDS011;4201;48.754;8.864;2023-03-31T05:37:03;16.67;;;6.87;;
8327;SDS011;4201;48.754;8.864;2023-03-31T05:39:30;17.70;;;7.43;;
8327;SDS011;4201;48.754;8.864;2023-03-31T05:41:57;17.87;;;8.33;;
8327;SDS011;4201;48.754;8.864;2023-03-31T05:44:23;12.40;;;7.20;;
8327;SDS011;4201;48.754;8.864;2023-03-31T05:46:50;13.13;;;7.10;;
8327;SDS011;4201;48.754;8.864;2023-03-31T05:49:17;15.13;;;6.40;;
8327;SDS011;4201;48.754;8.864;2023-03-31T05:51:44;15.03;;;7.73;;
8327;SDS011;4201;48.754;8.864;2023-03-31T05:54:11;12.77;;;8.00;;
8327;SDS011;4201;48.754;8.864;2023-03-31T05:56:38;22.53;;;7.73;;
8327;SDS011;4201;48.754;8.864;2023-03-31T05:59:04;15.23;;;7.10;;
8327;SDS011;4201;48.754;8.864;2023-03-31T06:01:30;14.63;;;7.30;;
8327;SDS011;4201;48.754;8.864;2023-03-31T06:03:57;15.63;;;7.57;;
8327;SDS011;4201;48.754;8.864;2023-03-31T06:06:23;18.00;;;7.30;;
8327;SDS011;4201;48.754;8.864;2023-03-31T06:08:51;18.83;;;7.70;;
8327;SDS011;4201;48.754;8.864;2023-03-31T06:11:18;19.50;;;6.70;;
8327;SDS011;4201;48.754;8.864;2023-03-31T06:13:45;18.77;;;7.50;;
8327;SDS011;4201;48.754;8.864;2023-03-31T06:16:12;17.17;;;7.73;;
8327;SDS011;4201;48.754;8.864;2023-03-31T06:18:39;16.53;;;7.77;;
8327;SDS011;4201;48.754;8.864;2023-03-31T06:21:05;12.23;;;7.23;;
8327;SDS011;4201;48.754;8.864;2023-03-31T06:23:32;13.20;;;7.80;;
8327;SDS011;4201;48.754;8.864;2023-03-31T06:26:01;16.70;;;8.90;;
8327;SDS011;4201;48.754;8.864;2023-03-31T06:28:27;19.23;;;7.30;;
8327;SDS011;4201;48.754;8.864;2023-03-31T06:30:58;18.37;;;8.30;;
8327;SDS011;4201;48.754;8.864;2023-03-31T06:33:24;13.77;;;7.47;;
8327;SDS011;4201;48.754;8.864;2023-03-31T06:35:50;19.00;;;8.40;;
8327;SDS011;4201;48.754;8.864;2023-03-31T06:38:20;18.97;;;8.50;;
8327;SDS011;4201;48.754;8.864;2023-03-31T06:40:46;15.80;;;7.70;;
8327;SDS011;4201;48.754;8.864;2023-03-31T06:43:13;16.20;;;9.10;;
8327;SDS011;4201;48.754;8.864;2023-03-31T06:45:40;12.40;;;7.50;;
8327;SDS011;4201;48.754;8.864;2023-03-31T06:48:06;13.47;;;9.50;;
8327;SDS011;4201;48.754;8.864;2023-03-31T06:50:32;17.93;;;7.63;;
8327;SDS011;4201;48.754;8.864;2023-03-31T06:52:58;21.20;;;8.40;;
8327;SDS011;4201;48.754;8.864;2023-03-31T06:55:24;16.97;;;8.57;;
8327;SDS011;4201;48.754;8.864;2023-03-31T06:57:51;14.30;;;7.90;;
8327;SDS011;4201;48.754;8.864;2023-03-31T07:00:19;14.97;;;6.43;;
8327;SDS011;4201;48.754;8.864;2023-03-31T07:02:45;10.87;;;5.97;;
8327;SDS011;4201;48.754;8.864;2023-03-31T07:05:11;8.43;;;6.13;;
8327;SDS011;4201;48.754;8.864;2023-03-31T07:07:37;10.33;;;5.23;;
8327;SDS011;4201;48.754;8.864;2023-03-31T07:10:04;8.23;;;4.60;;
8327;SDS011;4201;48.754;8.864;2023-03-31T07:12:31;9.60;;;5.70;;
8327;SDS011;4201;48.754;8.864;2023-03-31T07:14:57;10.63;;;4.60;;
8327;SDS011;4201;48.754;8.864;2023-03-31T07:17:25;6.07;;;3.53;;
8327;SDS011;4201;48.754;8.864;2023-03-31T07:19:51;8.23;;;4.20;;
8327;SDS011;4201;48.754;8.864;2023-03-31T07:22:17;6.43;;;3.70;;
8327;SDS011;4201;48.754;8.864;2023-03-31T07:24:43;5.23;;;3.67;;
8327;SDS011;4201;48.754;8.864;2023-03-31T07:27:10;8.40;;;3.30;;
8327;SDS011;4201;48.754;8.864;2023-03-31T07:29:36;6.37;;;3.27;;
8327;SDS011;4201;48.754;8.864;2023-03-31T07:32:02;5.57;;;2.47;;
8327;SDS011;4201;48.754;8.864;2023-03-31T07:34:30;4.50;;;2.33;;
8327;SDS011;4201;48.754;8.864;2023-03-31T07:36:56;5.47;;;2.67;;
8327;SDS011;4201;48.754;8.864;2023-03-31T07:39:22;6.30;;;1.90;;
8327;SDS011;4201;48.754;8.864;2023-03-31T07:41:49;4.33;;;2.23;;
8327;SDS011;4201;48.754;8.864;2023-03-31T07:44:15;3.10;;;1.70;;
8327;SDS011;4201;48.754;8.864;2023-03-31T07:46:42;3.53;;;1.70;;
8327;SDS011;4201;48.754;8.864;2023-03-31T07:49:09;6.40;;;2.47;;
8327;SDS011;4201;48.754;8.864;2023-03-31T07:51:41;7.43;;;1.90;;
8327;SDS011;4201;48.754;8.864;2023-03-31T07:54:07;6.33;;;1.90;;
8327;SDS011;4201;48.754;8.864;2023-03-31T07:56:33;3.00;;;1.83;;
8327;SDS011;4201;48.754;8.864;2023-03-31T07:59:00;3.40;;;1.97;;
8327;SDS011;4201;48.754;8.864;2023-03-31T08:01:26;4.23;;;2.10;;
8327;SDS011;4201;48.754;8.864;2023-03-31T08:03:53;5.83;;;2.37;;
8327;SDS011;4201;48.754;8.864;2023-03-31T08:06:21;4.07;;;1.60;;
8327;SDS011;4201;48.754;8.864;2023-03-31T08:08:49;4.83;;;2.07;;
8327;SDS011;4201;48.754;8.864;2023-03-31T08:11:15;5.67;;;1.83;;
8327;SDS011;4201;48.754;8.864;2023-03-31T08:13:41;5.20;;;1.93;;
8327;SDS011;4201;48.754;8.864;2023-03-31T08:16:08;5.00;;;2.00;;
8327;SDS011;4201;48.754;8.864;2023-03-31T08:18:34;5.57;;;2.13;;
8327;SDS011;4201;48.754;8.864;2023-03-31T08:21:00;4.83;;;1.83;;
8327;SDS011;4201;48.754;8.864;2023-03-31T08:23:26;6.50;;;2.40;;
8327;SDS011;4201;48.754;8.864;2023-03-31T08:25:54;7.50;;;2.83;;
8327;SDS011;4201;48.754;8.864;2023-03-31T08:28:20;6.60;;;2.40;;
8327;SDS011;4201;48.754;8.864;2023-03-31T08:30:46;9.17;;;2.87;;
8327;SDS011;4201;48.754;8.864;2023-03-31T08:33:13;4.83;;;2.17;;
8327;SDS011;4201;48.754;8.864;2023-03-31T08:35:39;7.17;;;1.97;;
8327;SDS011;4201;48.754;8.864;2023-03-31T08:38:05;6.77;;;2.30;;
8327;SDS011;4201;48.754;8.864;2023-03-31T08:40:32;5.37;;;1.80;;
8327;SDS011;4201;48.754;8.864;2023-03-31T08:43:01;8.40;;;2.73;;
8327;SDS011;4201;48.754;8.864;2023-03-31T08:45:30;5.73;;;1.97;;
8327;SDS011;4201;48.754;8.864;2023-03-31T08:47:58;7.33;;;2.27;;
8327;SDS011;4201;48.754;8.864;2023-03-31T08:50:26;5.90;;;2.40;;
8327;SDS011;4201;48.754;8.864;2023-03-31T08:52:54;6.57;;;2.17;;
8327;SDS011;4201;48.754;8.864;2023-03-31T08:55:23;7.87;;;2.73;;
8327;SDS011;4201;48.754;8.864;2023-03-31T08:57:51;7.77;;;2.90;;
8327;SDS011;4201;48.754;8.864;2023-03-31T09:00:22;5.03;;;2.03;;
8327;SDS011;4201;48.754;8.864;2023-03-31T09:02:50;10.60;;;1.83;;
8327;SDS011;4201;48.754;8.864;2023-03-31T09:05:21;6.20;;;2.13;;
8327;SDS011;4201;48.754;8.864;2023-03-31T09:07:50;7.97;;;2.30;;
8327;SDS011;4201;48.754;8.864;2023-03-31T09:10:22;8.40;;;2.80;;
8327;SDS011;4201;48.754;8.864;2023-03-31T09:12:54;8.23;;;1.83;;
8327;SDS011;4201;48.754;8.864;2023-03-31T09:15:25;7.53;;;2.20;;
8327;SDS011;4201;48.754;8.864;2023-03-31T09:17:52;10.77;;;2.33;;
8327;SDS011;4201;48.754;8.864;2023-03-31T09:20:20;6.33;;;2.07;;
8327;SDS011;4201;48.754;8.864;2023-03-31T09:22:48;9.07;;;2.60;;
8327;SDS011;4201;48.754;8.864;2023-03-31T09:25:16;6.03;;;2.37;;
8327;SDS011;4201;48.754;8.864;2023-03-31T09:27:44;6.30;;;2.30;;
8327;SDS011;4201;48.754;8.864;2023-03-31T09:30:12;7.17;;;2.60;;
8327;SDS011;4201;48.754;8.864;2023-03-31T09:32:40;4.93;;;1.87;;
8327;SDS011;4201;48.754;8.864;2023-03-31T09:35:15;9.87;;;2.20;;
8327;SDS011;4201;48.754;8.864;2023-03-31T09:37:41;5.97;;;2.27;;
8327;SDS011;4201;48.754;8.864;2023-03-31T09:40:12;5.43;;;2.33;;
8327;SDS011;4201;48.754;8.864;2023-03-31T09:42:40;7.70;;;2.30;;
8327;SDS011;4201;48.754;8.864;2023-03-31T09:45:11;8.10;;;2.57;;
8327;SDS011;4201;48.754;8.864;2023-03-31T09:47:38;10.17;;;2.93;;
8327;SDS011;4201;48.754;8.864;2023-03-31T09:50:08;7.80;;;2.53;;
8327;SDS011;4201;48.754;8.864;2023-03-31T09:52:36;7.17;;;2.20;;
8327;SDS011;4201;48.754;8.864;2023-03-31T09:55:03;9.60;;;3.10;;
8327;SDS011;4201;48.754;8.864;2023-03-31T09:57:30;6.03;;;2.20;;
8327;SDS011;4201;48.754;8.864;2023-03-31T10:00:00;6.77;;;2.50;;
8327;SDS011;4201;48.754;8.864;2023-03-31T10:02:33;10.33;;;2.77;;
8327;SDS011;4201;48.754;8.864;2023-03-31T10:05:00;11.37;;;2.80;;
8327;SDS011;4201;48.754;8.864;2023-03-31T10:07:28;10.57;;;2.17;;
8327;SDS011;4201;48.754;8.864;2023-03-31T10:09:54;10.03;;;2.73;;
8327;SDS011;4201;48.754;8.864;2023-03-31T10:12:21;8.33;;;2.40;;
8327;SDS011;4201;48.754;8.864;2023-03-31T10:14:49;10.90;;;3.00;;
8327;SDS011;4201;48.754;8.864;2023-03-31T10:17:16;10.00;;;2.50;;
8327;SDS011;4201;48.754;8.864;2023-03-31T10:19:46;8.13;;;2.30;;
8327;SDS011;4201;48.754;8.864;2023-03-31T10:22:13;8.90;;;2.10;;
8327;SDS011;4201;48.754;8.864;2023-03-31T10:24:42;8.00;;;2.33;;
8327;SDS011;4201;48.754;8.864;2023-03-31T10:27:13;8.50;;;3.00;;
8327;SDS011;4201;48.754;8.864;2023-03-31T10:29:42;6.07;;;2.10;;
8327;SDS011;4201;48.754;8.864;2023-03-31T10:32:10;9.70;;;5.63;;
8327;SDS011;4201;48.754;8.864;2023-03-31T10:34:41;8.90;;;3.30;;
8327;SDS011;4201;48.754;8.864;2023-03-31T10:37:09;8.87;;;2.57;;
8327;SDS011;4201;48.754;8.864;2023-03-31T10:39:37;10.87;;;3.63;;
8327;SDS011;4201;48.754;8.864;2023-03-31T10:42:05;8.20;;;2.80;;
8327;SDS011;4201;48.754;8.864;2023-03-31T10:44:32;8.63;;;2.40;;
8327;SDS011;4201;48.754;8.864;2023-03-31T10:47:02;4.93;;;2.10;;
8327;SDS011;4201;48.754;8.864;2023-03-31T10:49:29;8.90;;;2.80;;
8327;SDS011;4201;48.754;8.864;2023-03-31T10:51:56;10.10;;;3.60;;
8327;SDS011;4201;48.754;8.864;2023-03-31T10:54:22;7.47;;;3.10;;
8327;SDS011;4201;48.754;8.864;2023-03-31T10:56:50;9.93;;;2.70;;
8327;SDS011;4201;48.754;8.864;2023-03-31T10:59:20;13.33;;;2.90;;
8327;SDS011;4201;48.754;8.864;2023-03-31T11:01:52;11.70;;;3.17;;
8327;SDS011;4201;48.754;8.864;2023-03-31T11:04:27;12.07;;;3.30;;
8327;SDS011;4201;48.754;8.864;2023-03-31T11:07:01;9.17;;;1.73;;
8327;SDS011;4201;48.754;8.864;2023-03-31T11:09:35;3.67;;;1.73;;
8327;SDS011;4201;48.754;8.864;2023-03-31T11:12:04;4.03;;;1.30;;
8327;SDS011;4201;48.754;8.864;2023-03-31T11:14:35;4.03;;;1.53;;
8327;SDS011;4201;48.754;8.864;2023-03-31T11:17:04;2.60;;;0.87;;
8327;SDS011;4201;48.754;8.864;2023-03-31T11:19:37;3.30;;;1.00;;
8327;SDS011;4201;48.754;8.864;2023-03-31T11:22:08;4.13;;;1.13;;
8327;SDS011;4201;48.754;8.864;2023-03-31T11:27:25;4.00;;;1.00;;
8327;SDS011;4201;48.754;8.864;2023-03-31T11:29:58;3.00;;;0.90;;
8327;SDS011;4201;48.754;8.864;2023-03-31T11:32:29;4.10;;;1.17;;
8327;SDS011;4201;48.754;8.864;2023-03-31T11:35:04;3.90;;;1.53;;
8327;SDS011;4201;48.754;8.864;2023-03-31T11:37:38;3.47;;;1.13;;
8327;SDS011;4201;48.754;8.864;2023-03-31T11:40:19;4.30;;;1.20;;
8327;SDS011;4201;48.754;8.864;2023-03-31T11:42:47;3.10;;;1.00;;
8327;SDS011;4201;48.754;8.864;2023-03-31T11:45:17;3.00;;;0.90;;
8327;SDS011;4201;48.754;8.864;2023-03-31T11:47:44;5.03;;;1.43;;
8327;SDS011;4201;48.754;8.864;2023-03-31T11:50:12;1.83;;;0.90;;
8327;SDS011;4201;48.754;8.864;2023-03-31T11:52:40;2.47;;;1.07;;
8327;SDS011;4201;48.754;8.864;2023-03-31T11:55:11;2.37;;;1.20;;
8327;SDS011;4201;48.754;8.864;2023-03-31T11:57:40;2.43;;;1.00;;
8327;SDS011;4201;48.754;8.864;2023-03-31T12:00:09;1.93;;;1.10;;
8327;SDS011;4201;48.754;8.864;2023-03-31T12:02:39;2.50;;;1.10;;
8327;SDS011;4201;48.754;8.864;2023-03-31T12:05:07;3.10;;;1.10;;
8327;SDS011;4201;48.754;8.864;2023-03-31T12:07:35;2.30;;;0.80;;
8327;SDS011;4201;48.754;8.864;2023-03-31T12:10:03;3.33;;;0.93;;
8327;SDS011;4201;48.754;8.864;2023-03-31T12:12:32;6.27;;;1.30;;
8327;SDS011;4201;48.754;8.864;2023-03-31T12:15:02;2.87;;;1.20;;
8327;SDS011;4201;48.754;8.864;2023-03-31T12:17:30;4.40;;;1.40;;
8327;SDS011;4201;48.754;8.864;2023-03-31T12:19:58;3.60;;;1.10;;
8327;SDS011;4201;48.754;8.864;2023-03-31T12:22:26;4.63;;;1.40;;
8327;SDS011;4201;48.754;8.864;2023-03-31T12:24:54;3.50;;;1.00;;
8327;SDS011;4201;48.754;8.864;2023-03-31T12:27:21;3.40;;;1.30;;
8327;SDS011;4201;48.754;8.864;2023-03-31T12:29:50;3.63;;;1.10;;
8327;SDS011;4201;48.754;8.864;2023-03-31T12:32:21;4.33;;;1.13;;
8327;SDS011;4201;48.754;8.864;2023-03-31T12:34:50;3.40;;;1.23;;
8327;SDS011;4201;48.754;8.864;2023-03-31T12:40:09;4.60;;;1.43;;
8327;SDS011;4201;48.754;8.864;2023-03-31T12:42:46;6.13;;;1.53;;
8327;SDS011;4201;48.754;8.864;2023-03-31T12:45:17;5.37;;;1.20;;
8327;SDS011;4201;48.754;8.864;2023-03-31T12:47:52;5.20;;;1.60;;
8327;SDS011;4201;48.754;8.864;2023-03-31T12:50:27;6.90;;;1.67;;
8327;SDS011;4201;48.754;8.864;2023-03-31T12:52:56;5.80;;;1.90;;
8327;SDS011;4201;48.754;8.864;2023-03-31T12:55:30;5.70;;;1.80;;
8327;SDS011;4201;48.754;8.864;2023-03-31T13:00:49;12.87;;;2.03;;
8327;SDS011;4201;48.754;8.864;2023-03-31T13:03:35;6.10;;;1.60;;
8327;SDS011;4201;48.754;8.864;2023-03-31T13:06:03;6.27;;;1.70;;
8327;SDS011;4201;48.754;8.864;2023-03-31T13:08:49;10.00;;;2.17;;
8327;SDS011;4201;48.754;8.864;2023-03-31T13:11:17;10.50;;;2.40;;
8327;SDS011;4201;48.754;8.864;2023-03-31T13:13:44;3.50;;;1.60;;
8327;SDS011;4201;48.754;8.864;2023-03-31T13:16:11;6.70;;;1.83;;
8327;SDS011;4201;48.754;8.864;2023-03-31T13:18:45;6.10;;;1.83;;
8327;SDS011;4201;48.754;8.864;2023-03-31T13:21:15;4.80;;;1.50;;
8327;SDS011;4201;48.754;8.864;2023-03-31T13:23:42;4.20;;;1.20;;
8327;SDS011;4201;48.754;8.864;2023-03-31T13:34:15;4.27;;;1.20;;
8327;SDS011;4201;48.754;8.864;2023-03-31T13:36:48;4.30;;;1.70;;
8327;SDS011;4201;48.754;8.864;2023-03-31T13:39:33;4.20;;;1.20;;
8327;SDS011;4201;48.754;8.864;2023-03-31T13:42:04;2.17;;;0.83;;
8327;SDS011;4201;48.754;8.864;2023-03-31T13:44:45;2.80;;;1.00;;
8327;SDS011;4201;48.754;8.864;2023-03-31T13:50:07;3.47;;;0.80;;
8327;SDS011;4201;48.754;8.864;2023-03-31T13:52:38;2.43;;;1.10;;
8327;SDS011;4201;48.754;8.864;2023-03-31T13:55:17;5.30;;;0.90;;
8327;SDS011;4201;48.754;8.864;2023-03-31T14:00:29;2.20;;;0.80;;
8327;SDS011;4201;48.754;8.864;2023-03-31T14:05:42;2.70;;;0.87;;
8327;SDS011;4201;48.754;8.864;2023-03-31T14:08:11;3.50;;;1.03;;
8327;SDS011;4201;48.754;8.864;2023-03-31T14:10:40;2.93;;;1.10;;
8327;SDS011;4201;48.754;8.864;2023-03-31T14:13:07;3.47;;;0.93;;
8327;SDS011;4201;48.754;8.864;2023-03-31T14:15:34;3.07;;;1.20;;
8327;SDS011;4201;48.754;8.864;2023-03-31T14:18:01;2.03;;;0.83;;
8327;SDS011;4201;48.754;8.864;2023-03-31T14:20:30;2.70;;;1.00;;
8327;SDS011;4201;48.754;8.864;2023-03-31T14:23:03;2.90;;;1.07;;
8327;SDS011;4201;48.754;8.864;2023-03-31T14:25:35;2.50;;;1.00;;
8327;SDS011;4201;48.754;8.864;2023-03-31T14:28:07;2.50;;;1.00;;
8327;SDS011;4201;48.754;8.864;2023-03-31T14:30:38;3.20;;;0.97;;
8327;SDS011;4201;48.754;8.864;2023-03-31T14:33:14;4.00;;;1.10;;
8327;SDS011;4201;48.754;8.864;2023-03-31T14:35:45;4.07;;;1.00;;
8327;SDS011;4201;48.754;8.864;2023-03-31T14:38:19;6.57;;;1.33;;
8327;SDS011;4201;48.754;8.864;2023-03-31T14:40:46;4.20;;;1.20;;
8327;SDS011;4201;48.754;8.864;2023-03-31T14:43:16;2.23;;;0.90;;
8327;SDS011;4201;48.754;8.864;2023-03-31T14:45:43;4.10;;;0.90;;
8327;SDS011;4201;48.754;8.864;2023-03-31T14:48:10;5.27;;;1.57;;
8327;SDS011;4201;48.754;8.864;2023-03-31T14:50:37;4.23;;;1.20;;
8327;SDS011;4201;48.754;8.864;2023-03-31T14:53:12;3.70;;;1.07;;
8327;SDS011;4201;48.754;8.864;2023-03-31T14:55:40;2.93;;;0.83;;
8327;SDS011;4201;48.754;8.864;2023-03-31T14:58:07;4.17;;;1.30;;
8327;SDS011;4201;48.754;8.864;2023-03-31T15:00:36;2.43;;;0.90;;
8327;SDS011;4201;48.754;8.864;2023-03-31T15:03:04;3.80;;;1.13;;
8327;SDS011;4201;48.754;8.864;2023-03-31T15:05:32;2.83;;;1.10;;
8327;SDS011;4201;48.754;8.864;2023-03-31T15:08:00;3.40;;;1.10;;
8327;SDS011;4201;48.754;8.864;2023-03-31T15:10:28;4.67;;;1.60;;
8327;SDS011;4201;48.754;8.864;2023-03-31T15:12:58;4.00;;;1.13;;
8327;SDS011;4201;48.754;8.864;2023-03-31T15:15:26;4.03;;;1.73;;
8327;SDS011;4201;48.754;8.864;2023-03-31T15:17:53;6.17;;;1.60;;
8327;SDS011;4201;48.754;8.864;2023-03-31T15:20:20;5.73;;;1.73;;
8327;SDS011;4201;48.754;8.864;2023-03-31T15:22:49;5.40;;;1.37;;
8327;SDS011;4201;48.754;8.864;2023-03-31T15:25:15;4.93;;;1.37;;
8327;SDS011;4201;48.754;8.864;2023-03-31T15:27:43;5.83;;;1.27;;
8327;SDS011;4201;48.754;8.864;2023-03-31T15:30:15;3.90;;;1.23;;
8327;SDS011;4201;48.754;8.864;2023-03-31T15:32:42;5.87;;;1.63;;
8327;SDS011;4201;48.754;8.864;2023-03-31T15:35:10;3.50;;;1.37;;
8327;SDS011;4201;48.754;8.864;2023-03-31T15:37:42;5.90;;;1.57;;
8327;SDS011;4201;48.754;8.864;2023-03-31T15:40:14;5.53;;;1.57;;
8327;SDS011;4201;48.754;8.864;2023-03-31T15:42:43;6.00;;;1.77;;
8327;SDS011;4201;48.754;8.864;2023-03-31T15:45:34;4.00;;;1.37;;
8327;SDS011;4201;48.754;8.864;2023-03-31T15:48:01;7.70;;;1.50;;
8327;SDS011;4201;48.754;8.864;2023-03-31T15:50:28;5.47;;;1.20;;
8327;SDS011;4201;48.754;8.864;2023-03-31T15:52:54;3.40;;;1.30;;
8327;SDS011;4201;48.754;8.864;2023-03-31T15:55:23;7.23;;;1.60;;